Terminal Aerodrome Forecast
Issued by NWS Albany, NY

Home | Current Version | Previous Version | Text Only | Print | Product List | Glossary On
Versions: 1 2 3 4 5 6 7 8 9 10 11 12 13 14 15 16 17 18 19 20
000
FTUS41 KALY 311500 AAA
TAFALB
TAF AMD
KALB 311520Z 3115/0112 19008KT P6SM VCSH SCT050 BKN100
     FM311600 19010KT P6SM VCSH OVC050
      TEMPO 3117/3118 24015G25KT 3SM TSRA OVC020CB
     FM312100 19008KT P6SM SCT050 SCT100
     FM010800 16003KT 4SM BR SCT250=

USA.gov is the U.S. government's official web portal to all federal, state and local government web resources and services.